sensor_id;sensor_type;location;lat;lon;timestamp;P1;durP1;ratioP1;P2;durP2;ratioP2
19675;SDS011;39539;52.202;9.876;2024-03-23T00:55:41;6.18;;;3.25;;
19675;SDS011;39539;52.202;9.876;2024-03-23T00:58:07;8.27;;;5.60;;
19675;SDS011;39539;52.202;9.876;2024-03-23T01:00:32;9.60;;;5.25;;
19675;SDS011;39539;52.202;9.876;2024-03-23T01:02:58;7.55;;;4.80;;
19675;SDS011;39539;52.202;9.876;2024-03-23T01:05:25;8.88;;;5.55;;
19675;SDS011;39539;52.202;9.876;2024-03-23T01:07:51;9.82;;;4.10;;
19675;SDS011;39539;52.202;9.876;2024-03-23T01:10:16;10.82;;;4.07;;
19675;SDS011;39539;52.202;9.876;2024-03-23T01:12:41;7.07;;;3.95;;
19675;SDS011;39539;52.202;9.876;2024-03-23T01:15:07;9.52;;;4.60;;
19675;SDS011;39539;52.202;9.876;2024-03-23T01:17:32;11.70;;;5.35;;
19675;SDS011;39539;52.202;9.876;2024-03-23T01:19:58;9.35;;;5.18;;
19675;SDS011;39539;52.202;9.876;2024-03-23T01:22:24;9.30;;;4.93;;
19675;SDS011;39539;52.202;9.876;2024-03-23T01:24:49;7.93;;;4.65;;
19675;SDS011;39539;52.202;9.876;2024-03-23T01:27:15;8.02;;;4.47;;
19675;SDS011;39539;52.202;9.876;2024-03-23T01:29:40;10.10;;;4.38;;
19675;SDS011;39539;52.202;9.876;2024-03-23T01:32:05;8.68;;;4.60;;
19675;SDS011;39539;52.202;9.876;2024-03-23T01:34:32;9.85;;;4.53;;
19675;SDS011;39539;52.202;9.876;2024-03-23T01:36:57;6.30;;;3.58;;
19675;SDS011;39539;52.202;9.876;2024-03-23T01:39:22;7.10;;;3.90;;
19675;SDS011;39539;52.202;9.876;2024-03-23T01:41:48;9.60;;;4.28;;
19675;SDS011;39539;52.202;9.876;2024-03-23T01:44:13;8.68;;;3.65;;
19675;SDS011;39539;52.202;9.876;2024-03-23T01:46:38;7.13;;;4.18;;
19675;SDS011;39539;52.202;9.876;2024-03-23T01:49:04;8.63;;;4.00;;
19675;SDS011;39539;52.202;9.876;2024-03-23T01:51:30;6.18;;;3.85;;
19675;SDS011;39539;52.202;9.876;2024-03-23T01:53:57;9.32;;;3.75;;
19675;SDS011;39539;52.202;9.876;2024-03-23T01:56:25;6.90;;;3.80;;
19675;SDS011;39539;52.202;9.876;2024-03-23T01:58:51;11.38;;;3.70;;
19675;SDS011;39539;52.202;9.876;2024-03-23T02:01:16;10.90;;;4.50;;
19675;SDS011;39539;52.202;9.876;2024-03-23T02:03:42;8.50;;;3.42;;
19675;SDS011;39539;52.202;9.876;2024-03-23T02:06:07;6.53;;;3.97;;
19675;SDS011;39539;52.202;9.876;2024-03-23T02:08:33;7.43;;;4.18;;
19675;SDS011;39539;52.202;9.876;2024-03-23T02:10:59;8.05;;;3.83;;
19675;SDS011;39539;52.202;9.876;2024-03-23T02:13:24;12.52;;;4.32;;
19675;SDS011;39539;52.202;9.876;2024-03-23T02:15:50;8.23;;;4.80;;
19675;SDS011;39539;52.202;9.876;2024-03-23T02:18:15;9.70;;;4.75;;
19675;SDS011;39539;52.202;9.876;2024-03-23T02:20:40;9.77;;;5.15;;
19675;SDS011;39539;52.202;9.876;2024-03-23T02:23:12;9.52;;;4.43;;
19675;SDS011;39539;52.202;9.876;2024-03-23T02:25:38;11.23;;;4.72;;
19675;SDS011;39539;52.202;9.876;2024-03-23T02:28:04;6.97;;;4.30;;
19675;SDS011;39539;52.202;9.876;2024-03-23T02:30:30;8.52;;;4.05;;
19675;SDS011;39539;52.202;9.876;2024-03-23T02:32:55;9.07;;;4.18;;
19675;SDS011;39539;52.202;9.876;2024-03-23T02:35:21;9.75;;;4.00;;
19675;SDS011;39539;52.202;9.876;2024-03-23T02:37:46;7.10;;;3.72;;
19675;SDS011;39539;52.202;9.876;2024-03-23T02:40:13;7.05;;;4.40;;
19675;SDS011;39539;52.202;9.876;2024-03-23T02:42:39;8.02;;;4.00;;
19675;SDS011;39539;52.202;9.876;2024-03-23T02:45:04;10.18;;;4.03;;
19675;SDS011;39539;52.202;9.876;2024-03-23T02:47:30;8.23;;;3.53;;
19675;SDS011;39539;52.202;9.876;2024-03-23T02:49:55;8.82;;;4.00;;
19675;SDS011;39539;52.202;9.876;2024-03-23T02:52:21;6.97;;;3.67;;
19675;SDS011;39539;52.202;9.876;2024-03-23T02:54:46;7.18;;;4.03;;
19675;SDS011;39539;52.202;9.876;2024-03-23T02:57:11;9.50;;;3.80;;
19675;SDS011;39539;52.202;9.876;2024-03-23T02:59:37;6.63;;;4.03;;
19675;SDS011;39539;52.202;9.876;2024-03-23T03:02:02;9.70;;;4.20;;
19675;SDS011;39539;52.202;9.876;2024-03-23T03:04:29;7.72;;;4.60;;
19675;SDS011;39539;52.202;9.876;2024-03-23T03:06:55;6.78;;;4.25;;
19675;SDS011;39539;52.202;9.876;2024-03-23T03:09:21;6.72;;;4.47;;
19675;SDS011;39539;52.202;9.876;2024-03-23T03:11:46;8.70;;;4.82;;
19675;SDS011;39539;52.202;9.876;2024-03-23T03:14:11;9.57;;;5.05;;
19675;SDS011;39539;52.202;9.876;2024-03-23T03:16:37;6.60;;;4.57;;
19675;SDS011;39539;52.202;9.876;2024-03-23T03:19:02;6.78;;;5.07;;
19675;SDS011;39539;52.202;9.876;2024-03-23T03:21:28;9.27;;;5.43;;
19675;SDS011;39539;52.202;9.876;2024-03-23T03:23:54;9.48;;;5.07;;
19675;SDS011;39539;52.202;9.876;2024-03-23T03:26:21;11.20;;;5.28;;
19675;SDS011;39539;52.202;9.876;2024-03-23T03:28:46;13.30;;;6.03;;
19675;SDS011;39539;52.202;9.876;2024-03-23T03:31:16;11.07;;;6.68;;
19675;SDS011;39539;52.202;9.876;2024-03-23T03:33:42;7.38;;;5.43;;
19675;SDS011;39539;52.202;9.876;2024-03-23T03:36:08;9.23;;;6.28;;
19675;SDS011;39539;52.202;9.876;2024-03-23T03:38:33;8.00;;;6.65;;
19675;SDS011;39539;52.202;9.876;2024-03-23T03:41:00;11.18;;;6.22;;
19675;SDS011;39539;52.202;9.876;2024-03-23T03:43:26;11.27;;;6.25;;
19675;SDS011;39539;52.202;9.876;2024-03-23T03:45:52;10.75;;;6.28;;
19675;SDS011;39539;52.202;9.876;2024-03-23T03:48:18;11.98;;;5.72;;
19675;SDS011;39539;52.202;9.876;2024-03-23T03:50:43;12.95;;;6.57;;
19675;SDS011;39539;52.202;9.876;2024-03-23T03:53:08;10.20;;;5.68;;
19675;SDS011;39539;52.202;9.876;2024-03-23T03:55:34;10.57;;;5.15;;
19675;SDS011;39539;52.202;9.876;2024-03-23T03:57:59;8.52;;;4.78;;
19675;SDS011;39539;52.202;9.876;2024-03-23T04:00:24;8.10;;;4.53;;
19675;SDS011;39539;52.202;9.876;2024-03-23T04:02:50;10.50;;;5.07;;
19675;SDS011;39539;52.202;9.876;2024-03-23T04:05:15;6.88;;;4.88;;
19675;SDS011;39539;52.202;9.876;2024-03-23T04:07:42;8.82;;;4.63;;
19675;SDS011;39539;52.202;9.876;2024-03-23T04:10:07;8.50;;;4.25;;
19675;SDS011;39539;52.202;9.876;2024-03-23T04:12:33;8.55;;;4.30;;
19675;SDS011;39539;52.202;9.876;2024-03-23T04:15:01;9.43;;;4.30;;
19675;SDS011;39539;52.202;9.876;2024-03-23T04:17:28;8.85;;;3.92;;
19675;SDS011;39539;52.202;9.876;2024-03-23T04:19:56;9.20;;;3.78;;
19675;SDS011;39539;52.202;9.876;2024-03-23T04:22:23;4.43;;;3.25;;
19675;SDS011;39539;52.202;9.876;2024-03-23T04:24:52;6.80;;;4.35;;
19675;SDS011;39539;52.202;9.876;2024-03-23T04:27:20;9.88;;;3.53;;
19675;SDS011;39539;52.202;9.876;2024-03-23T04:29:52;7.03;;;4.03;;
19675;SDS011;39539;52.202;9.876;2024-03-23T04:32:18;7.43;;;3.50;;
19675;SDS011;39539;52.202;9.876;2024-03-23T04:34:43;8.95;;;3.17;;
19675;SDS011;39539;52.202;9.876;2024-03-23T04:37:09;6.25;;;3.22;;
19675;SDS011;39539;52.202;9.876;2024-03-23T04:39:38;8.48;;;3.13;;
19675;SDS011;39539;52.202;9.876;2024-03-23T04:42:03;5.25;;;2.20;;
19675;SDS011;39539;52.202;9.876;2024-03-23T04:44:29;7.97;;;3.38;;
19675;SDS011;39539;52.202;9.876;2024-03-23T04:46:55;4.05;;;2.55;;
19675;SDS011;39539;52.202;9.876;2024-03-23T04:49:21;5.15;;;2.55;;
19675;SDS011;39539;52.202;9.876;2024-03-23T04:51:46;4.77;;;2.70;;
19675;SDS011;39539;52.202;9.876;2024-03-23T04:54:12;5.85;;;4.03;;
19675;SDS011;39539;52.202;9.876;2024-03-23T04:56:56;5.45;;;3.92;;
19675;SDS011;39539;52.202;9.876;2024-03-23T04:59:21;6.32;;;2.95;;
19675;SDS011;39539;52.202;9.876;2024-03-23T05:01:46;7.38;;;2.75;;
19675;SDS011;39539;52.202;9.876;2024-03-23T05:04:12;5.57;;;2.70;;
19675;SDS011;39539;52.202;9.876;2024-03-23T05:06:37;6.30;;;2.60;;
19675;SDS011;39539;52.202;9.876;2024-03-23T05:09:03;5.00;;;2.65;;
19675;SDS011;39539;52.202;9.876;2024-03-23T05:11:32;6.10;;;2.60;;
19675;SDS011;39539;52.202;9.876;2024-03-23T05:13:57;6.47;;;2.92;;
19675;SDS011;39539;52.202;9.876;2024-03-23T05:16:23;7.00;;;2.72;;
19675;SDS011;39539;52.202;9.876;2024-03-23T05:18:48;7.18;;;3.67;;
19675;SDS011;39539;52.202;9.876;2024-03-23T05:21:13;5.97;;;3.35;;
19675;SDS011;39539;52.202;9.876;2024-03-23T05:23:39;4.97;;;3.17;;
19675;SDS011;39539;52.202;9.876;2024-03-23T05:26:04;7.68;;;3.08;;
19675;SDS011;39539;52.202;9.876;2024-03-23T05:28:29;7.85;;;3.20;;
19675;SDS011;39539;52.202;9.876;2024-03-23T05:30:55;5.50;;;3.42;;
19675;SDS011;39539;52.202;9.876;2024-03-23T05:33:21;4.45;;;2.70;;
19675;SDS011;39539;52.202;9.876;2024-03-23T05:35:55;3.00;;;2.70;;
19675;SDS011;39539;52.202;9.876;2024-03-23T05:38:21;5.40;;;3.00;;
19675;SDS011;39539;52.202;9.876;2024-03-23T05:40:56;7.93;;;3.05;;
19675;SDS011;39539;52.202;9.876;2024-03-23T05:43:25;8.85;;;3.95;;
19675;SDS011;39539;52.202;9.876;2024-03-23T05:45:58;8.77;;;3.50;;
19675;SDS011;39539;52.202;9.876;2024-03-23T05:48:24;7.05;;;3.35;;
19675;SDS011;39539;52.202;9.876;2024-03-23T05:50:50;6.95;;;3.28;;
19675;SDS011;39539;52.202;9.876;2024-03-23T05:53:16;7.90;;;3.13;;
19675;SDS011;39539;52.202;9.876;2024-03-23T05:55:43;6.55;;;2.20;;
19675;SDS011;39539;52.202;9.876;2024-03-23T05:58:09;6.78;;;3.03;;
19675;SDS011;39539;52.202;9.876;2024-03-23T06:00:35;6.43;;;2.60;;
19675;SDS011;39539;52.202;9.876;2024-03-23T06:03:01;5.28;;;2.03;;
19675;SDS011;39539;52.202;9.876;2024-03-23T06:05:26;3.70;;;1.50;;
19675;SDS011;39539;52.202;9.876;2024-03-23T06:07:52;4.10;;;1.55;;
19675;SDS011;39539;52.202;9.876;2024-03-23T06:10:17;4.25;;;1.80;;
19675;SDS011;39539;52.202;9.876;2024-03-23T06:12:43;7.63;;;2.58;;
19675;SDS011;39539;52.202;9.876;2024-03-23T06:15:08;4.38;;;1.60;;
19675;SDS011;39539;52.202;9.876;2024-03-23T06:17:36;4.60;;;1.90;;
19675;SDS011;39539;52.202;9.876;2024-03-23T06:20:01;4.93;;;1.92;;
19675;SDS011;39539;52.202;9.876;2024-03-23T06:22:27;5.60;;;2.33;;
19675;SDS011;39539;52.202;9.876;2024-03-23T06:24:52;6.80;;;2.17;;
19675;SDS011;39539;52.202;9.876;2024-03-23T06:27:18;7.13;;;2.10;;
19675;SDS011;39539;52.202;9.876;2024-03-23T06:29:43;6.72;;;2.15;;
19675;SDS011;39539;52.202;9.876;2024-03-23T06:32:09;5.38;;;1.80;;
19675;SDS011;39539;52.202;9.876;2024-03-23T06:34:34;5.63;;;2.20;;
19675;SDS011;39539;52.202;9.876;2024-03-23T06:37:00;6.53;;;2.13;;
19675;SDS011;39539;52.202;9.876;2024-03-23T06:39:25;6.47;;;1.98;;
19675;SDS011;39539;52.202;9.876;2024-03-23T06:41:54;5.95;;;2.15;;
19675;SDS011;39539;52.202;9.876;2024-03-23T06:44:20;7.97;;;2.90;;
19675;SDS011;39539;52.202;9.876;2024-03-23T06:46:45;7.03;;;2.30;;
19675;SDS011;39539;52.202;9.876;2024-03-23T06:49:11;9.85;;;3.00;;
19675;SDS011;39539;52.202;9.876;2024-03-23T06:51:36;6.75;;;2.00;;
19675;SDS011;39539;52.202;9.876;2024-03-23T06:54:03;11.70;;;2.60;;
19675;SDS011;39539;52.202;9.876;2024-03-23T06:56:29;5.65;;;2.13;;
19675;SDS011;39539;52.202;9.876;2024-03-23T06:58:54;5.70;;;2.05;;
19675;SDS011;39539;52.202;9.876;2024-03-23T07:01:20;9.15;;;3.03;;
19675;SDS011;39539;52.202;9.876;2024-03-23T07:03:45;7.35;;;2.03;;
19675;SDS011;39539;52.202;9.876;2024-03-23T07:06:10;4.80;;;2.05;;
19675;SDS011;39539;52.202;9.876;2024-03-23T07:08:35;7.78;;;2.33;;
19675;SDS011;39539;52.202;9.876;2024-03-23T07:11:01;8.57;;;3.90;;
19675;SDS011;39539;52.202;9.876;2024-03-23T07:13:27;9.02;;;3.88;;
19675;SDS011;39539;52.202;9.876;2024-03-23T07:15:53;6.85;;;2.33;;
19675;SDS011;39539;52.202;9.876;2024-03-23T07:18:20;6.10;;;2.15;;
19675;SDS011;39539;52.202;9.876;2024-03-23T07:20:55;5.30;;;2.00;;
19675;SDS011;39539;52.202;9.876;2024-03-23T07:23:22;8.18;;;2.40;;
19675;SDS011;39539;52.202;9.876;2024-03-23T07:28:26;5.47;;;2.33;;
19675;SDS011;39539;52.202;9.876;2024-03-23T07:31:12;7.85;;;2.85;;
19675;SDS011;39539;52.202;9.876;2024-03-23T07:33:42;6.10;;;2.78;;
19675;SDS011;39539;52.202;9.876;2024-03-23T07:36:09;3.90;;;2.38;;
19675;SDS011;39539;52.202;9.876;2024-03-23T07:38:34;5.35;;;2.67;;
19675;SDS011;39539;52.202;9.876;2024-03-23T07:43:32;7.10;;;2.70;;
19675;SDS011;39539;52.202;9.876;2024-03-23T07:45:58;7.15;;;2.70;;
19675;SDS011;39539;52.202;9.876;2024-03-23T07:48:23;7.82;;;2.78;;
19675;SDS011;39539;52.202;9.876;2024-03-23T07:50:58;9.50;;;2.75;;
19675;SDS011;39539;52.202;9.876;2024-03-23T07:53:27;8.15;;;2.58;;
19675;SDS011;39539;52.202;9.876;2024-03-23T07:55:54;7.72;;;2.75;;
19675;SDS011;39539;52.202;9.876;2024-03-23T07:58:24;7.93;;;2.78;;
19675;SDS011;39539;52.202;9.876;2024-03-23T08:00:50;6.95;;;2.90;;
19675;SDS011;39539;52.202;9.876;2024-03-23T08:03:15;6.28;;;2.78;;
19675;SDS011;39539;52.202;9.876;2024-03-23T08:05:41;6.10;;;3.10;;
19675;SDS011;39539;52.202;9.876;2024-03-23T08:08:06;4.63;;;2.78;;
19675;SDS011;39539;52.202;9.876;2024-03-23T08:10:32;7.43;;;3.17;;
19675;SDS011;39539;52.202;9.876;2024-03-23T08:12:57;7.72;;;3.55;;
19675;SDS011;39539;52.202;9.876;2024-03-23T08:15:22;6.97;;;3.33;;
19675;SDS011;39539;52.202;9.876;2024-03-23T08:17:48;10.77;;;5.07;;
19675;SDS011;39539;52.202;9.876;2024-03-23T08:20:14;12.70;;;4.13;;
19675;SDS011;39539;52.202;9.876;2024-03-23T08:22:39;13.63;;;4.75;;
19675;SDS011;39539;52.202;9.876;2024-03-23T08:25:05;8.43;;;4.97;;
19675;SDS011;39539;52.202;9.876;2024-03-23T08:27:31;7.45;;;4.57;;
19675;SDS011;39539;52.202;9.876;2024-03-23T08:29:56;6.25;;;4.43;;
19675;SDS011;39539;52.202;9.876;2024-03-23T08:32:21;5.90;;;4.78;;
19675;SDS011;39539;52.202;9.876;2024-03-23T08:34:47;14.43;;;5.35;;
19675;SDS011;39539;52.202;9.876;2024-03-23T08:37:12;10.27;;;6.07;;
19675;SDS011;39539;52.202;9.876;2024-03-23T08:39:37;10.88;;;5.88;;
19675;SDS011;39539;52.202;9.876;2024-03-23T08:42:02;12.10;;;6.55;;
19675;SDS011;39539;52.202;9.876;2024-03-23T08:44:28;19.52;;;8.32;;
19675;SDS011;39539;52.202;9.876;2024-03-23T08:46:55;13.55;;;7.05;;
19675;SDS011;39539;52.202;9.876;2024-03-23T08:49:21;13.68;;;9.75;;
19675;SDS011;39539;52.202;9.876;2024-03-23T08:51:46;14.23;;;8.82;;
19675;SDS011;39539;52.202;9.876;2024-03-23T08:54:12;15.90;;;8.77;;
19675;SDS011;39539;52.202;9.876;2024-03-23T08:56:37;11.70;;;7.57;;
19675;SDS011;39539;52.202;9.876;2024-03-23T08:59:02;8.65;;;6.22;;
19675;SDS011;39539;52.202;9.876;2024-03-23T09:01:28;9.73;;;6.60;;
19675;SDS011;39539;52.202;9.876;2024-03-23T09:03:53;11.80;;;6.60;;
19675;SDS011;39539;52.202;9.876;2024-03-23T09:06:18;13.32;;;6.82;;
19675;SDS011;39539;52.202;9.876;2024-03-23T09:08:44;10.52;;;6.38;;
19675;SDS011;39539;52.202;9.876;2024-03-23T09:11:10;10.90;;;6.00;;
19675;SDS011;39539;52.202;9.876;2024-03-23T09:13:38;10.27;;;6.15;;
19675;SDS011;39539;52.202;9.876;2024-03-23T09:16:04;11.57;;;6.00;;
19675;SDS011;39539;52.202;9.876;2024-03-23T09:18:33;10.52;;;5.68;;
19675;SDS011;39539;52.202;9.876;2024-03-23T09:21:00;12.85;;;5.55;;
19675;SDS011;39539;52.202;9.876;2024-03-23T09:23:26;9.85;;;6.05;;
19675;SDS011;39539;52.202;9.876;2024-03-23T09:25:51;8.25;;;6.18;;
19675;SDS011;39539;52.202;9.876;2024-03-23T09:28:16;10.10;;;6.35;;
19675;SDS011;39539;52.202;9.876;2024-03-23T09:30:42;10.55;;;6.65;;
19675;SDS011;39539;52.202;9.876;2024-03-23T09:33:10;10.43;;;6.32;;
19675;SDS011;39539;52.202;9.876;2024-03-23T09:35:40;12.52;;;5.90;;
19675;SDS011;39539;52.202;9.876;2024-03-23T09:38:06;12.88;;;6.28;;
19675;SDS011;39539;52.202;9.876;2024-03-23T09:40:35;9.15;;;5.35;;
19675;SDS011;39539;52.202;9.876;2024-03-23T09:43:06;11.75;;;5.57;;
19675;SDS011;39539;52.202;9.876;2024-03-23T09:45:32;8.95;;;5.40;;
19675;SDS011;39539;52.202;9.876;2024-03-23T09:48:00;10.35;;;5.22;;
19675;SDS011;39539;52.202;9.876;2024-03-23T09:50:26;10.02;;;5.05;;
19675;SDS011;39539;52.202;9.876;2024-03-23T09:52:52;10.88;;;5.25;;
19675;SDS011;39539;52.202;9.876;2024-03-23T09:55:17;9.52;;;5.25;;
19675;SDS011;39539;52.202;9.876;2024-03-23T09:57:43;9.02;;;5.65;;
19675;SDS011;39539;52.202;9.876;2024-03-23T10:00:08;9.77;;;5.45;;
19675;SDS011;39539;52.202;9.876;2024-03-23T10:02:35;8.48;;;5.82;;
19675;SDS011;39539;52.202;9.876;2024-03-23T10:05:00;9.32;;;6.63;;
19675;SDS011;39539;52.202;9.876;2024-03-23T10:07:26;11.27;;;6.63;;
19675;SDS011;39539;52.202;9.876;2024-03-23T10:09:54;10.07;;;6.45;;
19675;SDS011;39539;52.202;9.876;2024-03-23T10:12:20;10.82;;;5.25;;
19675;SDS011;39539;52.202;9.876;2024-03-23T10:14:46;8.93;;;5.75;;
19675;SDS011;39539;52.202;9.876;2024-03-23T10:17:18;8.73;;;4.75;;
19675;SDS011;39539;52.202;9.876;2024-03-23T10:19:45;16.15;;;4.50;;
19675;SDS011;39539;52.202;9.876;2024-03-23T10:22:13;9.73;;;4.60;;
19675;SDS011;39539;52.202;9.876;2024-03-23T10:24:39;8.10;;;4.47;;
19675;SDS011;39539;52.202;9.876;2024-03-23T10:27:05;6.20;;;4.18;;
19675;SDS011;39539;52.202;9.876;2024-03-23T10:29:30;7.57;;;4.78;;
19675;SDS011;39539;52.202;9.876;2024-03-23T10:32:08;8.75;;;5.38;;
19675;SDS011;39539;52.202;9.876;2024-03-23T10:34:35;8.82;;;5.35;;
19675;SDS011;39539;52.202;9.876;2024-03-23T10:37:02;6.05;;;3.90;;
19675;SDS011;39539;52.202;9.876;2024-03-23T10:39:29;10.57;;;4.55;;
19675;SDS011;39539;52.202;9.876;2024-03-23T10:41:56;8.15;;;4.90;;
19675;SDS011;39539;52.202;9.876;2024-03-23T10:44:22;7.93;;;4.75;;
19675;SDS011;39539;52.202;9.876;2024-03-23T10:46:51;9.98;;;5.00;;
19675;SDS011;39539;52.202;9.876;2024-03-23T10:49:23;7.38;;;3.85;;
19675;SDS011;39539;52.202;9.876;2024-03-23T10:51:50;7.45;;;4.45;;
19675;SDS011;39539;52.202;9.876;2024-03-23T10:54:16;6.35;;;3.65;;
19675;SDS011;39539;52.202;9.876;2024-03-23T10:56:43;2.78;;;1.73;;
19675;SDS011;39539;52.202;9.876;2024-03-23T10:59:09;3.72;;;1.70;;
19675;SDS011;39539;52.202;9.876;2024-03-23T11:01:34;2.00;;;1.40;;
19675;SDS011;39539;52.202;9.876;2024-03-23T11:04:00;2.47;;;1.45;;
19675;SDS011;39539;52.202;9.876;2024-03-23T11:06:35;2.45;;;1.80;;
19675;SDS011;39539;52.202;9.876;2024-03-23T11:09:00;1.77;;;1.30;;
19675;SDS011;39539;52.202;9.876;2024-03-23T11:11:26;2.70;;;2.00;;
19675;SDS011;39539;52.202;9.876;2024-03-23T11:13:52;2.60;;;2.10;;
19675;SDS011;39539;52.202;9.876;2024-03-23T11:18:48;4.90;;;2.50;;
19675;SDS011;39539;52.202;9.876;2024-03-23T11:24:16;4.38;;;3.42;;
19675;SDS011;39539;52.202;9.876;2024-03-23T11:26:43;5.13;;;3.95;;
19675;SDS011;39539;52.202;9.876;2024-03-23T11:29:10;5.85;;;4.00;;
19675;SDS011;39539;52.202;9.876;2024-03-23T11:31:37;5.72;;;3.90;;
19675;SDS011;39539;52.202;9.876;2024-03-23T11:34:04;6.32;;;3.55;;
19675;SDS011;39539;52.202;9.876;2024-03-23T11:36:30;3.17;;;1.85;;
19675;SDS011;39539;52.202;9.876;2024-03-23T11:38:55;3.13;;;2.13;;
19675;SDS011;39539;52.202;9.876;2024-03-23T11:41:21;3.55;;;2.58;;
19675;SDS011;39539;52.202;9.876;2024-03-23T11:43:46;5.03;;;3.05;;
19675;SDS011;39539;52.202;9.876;2024-03-23T11:46:11;4.05;;;2.95;;
19675;SDS011;39539;52.202;9.876;2024-03-23T11:48:50;5.32;;;2.80;;
19675;SDS011;39539;52.202;9.876;2024-03-23T11:51:17;4.35;;;3.28;;
19675;SDS011;39539;52.202;9.876;2024-03-23T11:53:43;5.60;;;3.50;;
19675;SDS011;39539;52.202;9.876;2024-03-23T11:56:08;6.40;;;3.60;;
19675;SDS011;39539;52.202;9.876;2024-03-23T11:58:34;4.88;;;3.13;;
19675;SDS011;39539;52.202;9.876;2024-03-23T12:01:00;4.75;;;3.20;;
19675;SDS011;39539;52.202;9.876;2024-03-23T12:03:28;6.10;;;4.07;;
19675;SDS011;39539;52.202;9.876;2024-03-23T12:05:57;4.88;;;2.92;;
19675;SDS011;39539;52.202;9.876;2024-03-23T12:08:29;4.70;;;3.53;;
19675;SDS011;39539;52.202;9.876;2024-03-23T12:11:05;4.43;;;3.50;;
19675;SDS011;39539;52.202;9.876;2024-03-23T12:13:32;3.50;;;3.20;;
19675;SDS011;39539;52.202;9.876;2024-03-23T12:16:19;5.20;;;3.90;;
19675;SDS011;39539;52.202;9.876;2024-03-23T12:18:46;5.57;;;3.78;;
19675;SDS011;39539;52.202;9.876;2024-03-23T12:21:12;4.75;;;3.63;;
19675;SDS011;39539;52.202;9.876;2024-03-23T12:23:41;4.70;;;2.75;;
19675;SDS011;39539;52.202;9.876;2024-03-23T12:26:11;4.28;;;2.72;;
19675;SDS011;39539;52.202;9.876;2024-03-23T12:28:37;5.55;;;2.15;;
19675;SDS011;39539;52.202;9.876;2024-03-23T12:31:03;3.60;;;2.20;;
19675;SDS011;39539;52.202;9.876;2024-03-23T12:33:28;2.13;;;1.92;;
19675;SDS011;39539;52.202;9.876;2024-03-23T12:35:53;2.17;;;1.85;;
19675;SDS011;39539;52.202;9.876;2024-03-23T12:38:19;3.63;;;2.50;;
19675;SDS011;39539;52.202;9.876;2024-03-23T12:40:47;3.33;;;2.50;;
19675;SDS011;39539;52.202;9.876;2024-03-23T12:43:16;3.17;;;2.83;;
19675;SDS011;39539;52.202;9.876;2024-03-23T12:45:46;3.90;;;3.00;;
19675;SDS011;39539;52.202;9.876;2024-03-23T12:48:12;4.97;;;3.25;;
19675;SDS011;39539;52.202;9.876;2024-03-23T12:50:37;4.40;;;3.28;;
19675;SDS011;39539;52.202;9.876;2024-03-23T12:53:03;3.40;;;3.10;;
19675;SDS011;39539;52.202;9.876;2024-03-23T12:55:28;3.67;;;2.90;;
19675;SDS011;39539;52.202;9.876;2024-03-23T12:57:53;4.13;;;3.72;;
19675;SDS011;39539;52.202;9.876;2024-03-23T13:00:19;3.20;;;2.15;;
19675;SDS011;39539;52.202;9.876;2024-03-23T13:02:45;2.28;;;1.60;;
19675;SDS011;39539;52.202;9.876;2024-03-23T13:05:10;2.92;;;1.30;;
19675;SDS011;39539;52.202;9.876;2024-03-23T13:07:35;2.33;;;1.17;;
19675;SDS011;39539;52.202;9.876;2024-03-23T13:10:02;1.98;;;1.00;;
19675;SDS011;39539;52.202;9.876;2024-03-23T13:12:28;1.23;;;0.82;;
19675;SDS011;39539;52.202;9.876;2024-03-23T13:14:54;1.33;;;0.65;;
19675;SDS011;39539;52.202;9.876;2024-03-23T13:17:19;1.05;;;0.70;;
19675;SDS011;39539;52.202;9.876;2024-03-23T13:19:45;2.92;;;1.00;;
19675;SDS011;39539;52.202;9.876;2024-03-23T13:22:10;0.70;;;0.70;;
19675;SDS011;39539;52.202;9.876;2024-03-23T13:24:36;1.25;;;0.82;;
19675;SDS011;39539;52.202;9.876;2024-03-23T13:27:02;1.50;;;1.00;;
19675;SDS011;39539;52.202;9.876;2024-03-23T13:29:29;3.92;;;1.08;;
19675;SDS011;39539;52.202;9.876;2024-03-23T13:31:54;1.92;;;1.00;;
19675;SDS011;39539;52.202;9.876;2024-03-23T13:34:20;2.67;;;1.27;;
19675;SDS011;39539;52.202;9.876;2024-03-23T13:36:45;2.53;;;1.33;;
19675;SDS011;39539;52.202;9.876;2024-03-23T13:39:12;2.88;;;1.60;;
19675;SDS011;39539;52.202;9.876;2024-03-23T13:41:38;2.28;;;1.67;;
19675;SDS011;39539;52.202;9.876;2024-03-23T13:44:05;2.33;;;1.67;;
19675;SDS011;39539;52.202;9.876;2024-03-23T13:46:31;2.65;;;1.95;;
19675;SDS011;39539;52.202;9.876;2024-03-23T13:48:57;2.25;;;1.80;;
19675;SDS011;39539;52.202;9.876;2024-03-23T13:51:23;3.78;;;2.33;;
19675;SDS011;39539;52.202;9.876;2024-03-23T13:53:55;2.28;;;1.80;;
19675;SDS011;39539;52.202;9.876;2024-03-23T13:56:24;2.85;;;2.00;;
19675;SDS011;39539;52.202;9.876;2024-03-23T13:58:50;2.75;;;2.17;;
19675;SDS011;39539;52.202;9.876;2024-03-23T14:01:16;3.38;;;2.20;;
19675;SDS011;39539;52.202;9.876;2024-03-23T14:03:42;2.85;;;2.20;;
19675;SDS011;39539;52.202;9.876;2024-03-23T14:06:08;3.50;;;2.28;;
19675;SDS011;39539;52.202;9.876;2024-03-23T14:08:35;3.13;;;2.17;;
19675;SDS011;39539;52.202;9.876;2024-03-23T14:11:04;4.60;;;2.65;;
19675;SDS011;39539;52.202;9.876;2024-03-23T14:13:29;3.65;;;2.85;;
19675;SDS011;39539;52.202;9.876;2024-03-23T14:15:55;3.78;;;2.95;;
19675;SDS011;39539;52.202;9.876;2024-03-23T14:18:20;4.40;;;3.08;;
19675;SDS011;39539;52.202;9.876;2024-03-23T14:20:48;5.00;;;3.13;;
19675;SDS011;39539;52.202;9.876;2024-03-23T14:23:13;3.30;;;2.88;;
19675;SDS011;39539;52.202;9.876;2024-03-23T14:25:39;3.85;;;2.97;;
19675;SDS011;39539;52.202;9.876;2024-03-23T14:28:04;3.28;;;1.95;;
19675;SDS011;39539;52.202;9.876;2024-03-23T14:30:30;2.20;;;1.92;;
19675;SDS011;39539;52.202;9.876;2024-03-23T14:32:56;1.67;;;1.42;;
19675;SDS011;39539;52.202;9.876;2024-03-23T14:35:22;3.17;;;1.58;;
19675;SDS011;39539;52.202;9.876;2024-03-23T14:37:48;1.27;;;1.08;;
19675;SDS011;39539;52.202;9.876;2024-03-23T14:40:14;1.23;;;0.73;;
19675;SDS011;39539;52.202;9.876;2024-03-23T14:42:41;0.75;;;0.70;;
19675;SDS011;39539;52.202;9.876;2024-03-23T14:45:06;0.68;;;0.68;;
19675;SDS011;39539;52.202;9.876;2024-03-23T14:47:32;1.00;;;0.70;;
19675;SDS011;39539;52.202;9.876;2024-03-23T14:49:58;1.63;;;1.00;;
19675;SDS011;39539;52.202;9.876;2024-03-23T14:52:24;0.50;;;0.50;;
19675;SDS011;39539;52.202;9.876;2024-03-23T14:54:49;0.55;;;0.52;;
19675;SDS011;39539;52.202;9.876;2024-03-23T14:57:14;0.50;;;0.50;;
19675;SDS011;39539;52.202;9.876;2024-03-23T14:59:40;0.47;;;0.47;;
19675;SDS011;39539;52.202;9.876;2024-03-23T15:02:08;1.43;;;0.30;;
19675;SDS011;39539;52.202;9.876;2024-03-23T15:04:34;0.43;;;0.40;;
19675;SDS011;39539;52.202;9.876;2024-03-23T15:07:00;0.95;;;0.43;;
19675;SDS011;39539;52.202;9.876;2024-03-23T15:09:26;0.40;;;0.40;;
19675;SDS011;39539;52.202;9.876;2024-03-23T15:11:51;0.82;;;0.68;;
19675;SDS011;39539;52.202;9.876;2024-03-23T15:14:17;0.50;;;0.50;;
19675;SDS011;39539;52.202;9.876;2024-03-23T15:16:42;0.88;;;0.60;;
19675;SDS011;39539;52.202;9.876;2024-03-23T15:19:08;4.32;;;0.70;;
19675;SDS011;39539;52.202;9.876;2024-03-23T15:21:34;2.10;;;0.98;;
19675;SDS011;39539;52.202;9.876;2024-03-23T15:23:59;1.67;;;0.60;;
19675;SDS011;39539;52.202;9.876;2024-03-23T15:26:25;1.65;;;0.73;;
19675;SDS011;39539;52.202;9.876;2024-03-23T15:28:50;1.30;;;0.70;;
19675;SDS011;39539;52.202;9.876;2024-03-23T15:31:21;1.58;;;0.88;;
19675;SDS011;39539;52.202;9.876;2024-03-23T15:33:47;0.80;;;0.80;;
19675;SDS011;39539;52.202;9.876;2024-03-23T15:36:12;0.82;;;0.60;;
19675;SDS011;39539;52.202;9.876;2024-03-23T15:38:38;1.20;;;0.73;;
19675;SDS011;39539;52.202;9.876;2024-03-23T15:41:04;1.92;;;1.00;;
19675;SDS011;39539;52.202;9.876;2024-03-23T15:43:29;2.25;;;0.90;;
19675;SDS011;39539;52.202;9.876;2024-03-23T15:46:00;1.48;;;0.90;;